Terminal Aerodrome Forecast
Issued by NWS Twin Cities, MN

Home | Current Version | Previous Version | Graphics & Text | Print | Product List | Glossary On
Versions: 1 2 3 4 5 6 7 8 9 10 11 12 13 14 15 16 17 18 19 20 21
000
FTUS43 KMPX 292320
TAFEAU
TAF
KEAU 292320Z 3000/3024 30006KT P6SM VCSH SCT050 BKN120
     FM300200 32003KT P6SM SKC
     FM301200 35007KT P6SM BKN007 OVC015
     FM301500 35007KT P6SM BKN050=

USA.gov is the U.S. government's official web portal to all federal, state and local government web resources and services.